This is the latest recevied weather packets stored in our database for station/object K5MJM. If no packets are shown the sender has not sent any weather packets the latest 10 day(s).
| Time | Temp. | Humidity | Pressure | Rain* | Wind** | Luminosity | Snow |
|---|---|---|---|---|---|---|---|
| 1777401078 | 15° C | 65% | 1014.1 hPa | 0 mm | - | - | - |
| 1777399278 | 14.44° C | 66% | 1014 hPa | 0 mm | - | - | - |
| 1777395078 | 14.44° C | 66% | 1014.7 hPa | 0 mm | - | - | - |
| 1777393278 | 15° C | 66% | 1014 hPa | 0 mm | - | - | - |
| 1777387879 | 15° C | 69% | 1013.6 hPa | 0 mm | - | - | - |
| 1777386078 | 15° C | 70% | 1014.5 hPa | 0 mm | - | - | - |
| 1777382717 | 15.56° C | 69% | 1013.6 hPa | 0 mm | - | - | - |
| 1777380920 | 15.56° C | 69% | 1013.8 hPa | 0 mm | - | - | - |
| 1777380317 | 15.56° C | 69% | 1013.6 hPa | 0 mm | - | - | - |
| 1777379719 | 15.56° C | 69% | 1013.8 hPa | 0 mm | - | - | - |
| 1777377319 | 15.56° C | 69% | 1013.1 hPa | 0 mm | - | - | - |
| 1777375520 | 15.56° C | 69% | 1013.7 hPa | 0 mm | - | - | - |
| 1777373718 | 16.11° C | 69% | 1013.3 hPa | 0 mm | - | - | - |
| 1777371319 | 16.11° C | 68% | 1013.2 hPa | 0 mm | - | - | - |
| 1777368917 | 16.67° C | 69% | 1013.9 hPa | 0 mm | - | - | - |
| 1777367140 | 16.11° C | 69% | 1013.6 hPa | 0 mm | - | - | - |
| 1777357519 | 17.78° C | 65% | 1013.8 hPa | 0 mm | - | - | - |
| 1777356919 | 17.22° C | 65% | 1013.7 hPa | 0 mm | - | - | - |
| 1777353319 | 17.78° C | 64% | 1013.6 hPa | 0 mm | - | - | - |
| 1777352720 | 17.78° C | 63% | 1013.4 hPa | 0 mm | - | - | - |
| 1777348518 | 18.89° C | 62% | 1013.1 hPa | 0 mm | - | - | - |
| 1777347919 | 18.89° C | 62% | 1012.9 hPa | 0 mm | - | - | - |
| 1777347318 | 19.44° C | 61% | 1013.1 hPa | 0 mm | - | - | - |
| 1777340718 | 22.22° C | 52% | 1011.3 hPa | 0 mm | - | - | - |
| 1777338318 | 23.89° C | 46% | 1010.5 hPa | 0 mm | - | - | - |
* Rain latest hour (hover to see other rain measurements)
** Current wind speed in m/s (hover to see current wind gust speed)